createdAt,value
2018-02-06T00:00:33.749Z,991.98
2018-02-06T00:01:33.660Z,991.98
2018-02-06T00:02:33.572Z,991.97
2018-02-06T00:03:33.486Z,991.96
2018-02-06T00:04:33.397Z,991.90
2018-02-06T00:05:33.311Z,991.86
2018-02-06T00:06:33.223Z,991.85
2018-02-06T00:07:33.137Z,991.82
2018-02-06T00:08:33.049Z,991.80
2018-02-06T00:09:32.963Z,991.73
2018-02-06T00:10:32.874Z,991.68
2018-02-06T00:11:32.787Z,991.67
2018-02-06T00:12:32.701Z,991.66
2018-02-06T00:13:32.614Z,991.61
2018-02-06T00:14:32.528Z,991.66
2018-02-06T00:15:32.438Z,991.65
2018-02-06T00:16:32.353Z,991.64
2018-02-06T00:17:32.265Z,991.62
2018-02-06T00:18:32.176Z,991.61
2018-02-06T00:19:32.096Z,991.56
2018-02-06T00:20:32.018Z,991.54
2018-02-06T00:21:31.922Z,991.56
2018-02-06T00:22:31.828Z,991.61
2018-02-06T00:23:31.742Z,991.62
2018-02-06T00:24:31.654Z,991.58
2018-02-06T00:25:31.568Z,991.57
2018-02-06T00:26:31.480Z,991.61
2018-02-06T00:27:31.393Z,991.58
2018-02-06T00:28:31.307Z,991.58
2018-02-06T00:29:31.221Z,991.62
2018-02-06T00:30:31.172Z,991.61
2018-02-06T00:31:31.046Z,991.55
2018-02-06T00:32:30.961Z,991.62
2018-02-06T00:33:30.873Z,991.62
2018-02-06T00:34:30.785Z,991.57
2018-02-06T00:35:30.700Z,991.60
2018-02-06T00:36:30.612Z,991.56
2018-02-06T00:37:30.526Z,991.60
2018-02-06T00:38:30.437Z,991.61
2018-02-06T00:39:30.351Z,991.65
2018-02-06T00:40:30.265Z,991.63
2018-02-06T00:41:30.178Z,991.60
2018-02-06T00:42:30.092Z,991.57
2018-02-06T00:43:30.007Z,991.55
2018-02-06T00:44:29.917Z,991.54
2018-02-06T00:45:29.832Z,991.53
2018-02-06T00:46:29.746Z,991.50
2018-02-06T00:47:29.808Z,991.49
2018-02-06T00:48:29.574Z,991.45
2018-02-06T00:49:29.486Z,991.44
2018-02-06T00:50:29.398Z,991.39
2018-02-06T00:51:29.313Z,991.37
2018-02-06T00:52:29.225Z,991.38
2018-02-06T00:53:29.139Z,991.37
2018-02-06T00:54:29.053Z,991.34
2018-02-06T00:55:28.967Z,991.34
2018-02-06T00:56:28.881Z,991.29
2018-02-06T00:57:28.794Z,991.25
2018-02-06T00:58:28.708Z,991.22
2018-02-06T00:59:28.620Z,991.17
2018-02-06T01:00:28.534Z,991.12
2018-02-06T01:01:28.451Z,991.10
2018-02-06T01:02:28.360Z,991.05
2018-02-06T01:03:28.275Z,991.02
2018-02-06T01:04:28.188Z,991.02
2018-02-06T01:05:28.103Z,990.96
2018-02-06T01:06:28.014Z,990.89
2018-02-06T01:07:27.929Z,990.87
2018-02-06T01:08:27.843Z,990.86
2018-02-06T01:09:27.757Z,990.86
2018-02-06T01:10:27.668Z,990.84
2018-02-06T01:11:27.581Z,990.84
2018-02-06T01:12:27.494Z,990.87
2018-02-06T01:13:27.409Z,990.87
2018-02-06T01:14:27.323Z,990.83
2018-02-06T01:15:27.238Z,990.79
2018-02-06T01:16:27.150Z,990.78
2018-02-06T01:17:27.063Z,990.73
2018-02-06T01:18:26.976Z,990.83
2018-02-06T01:19:26.889Z,990.77
2018-02-06T01:20:26.803Z,990.73
2018-02-06T01:21:26.716Z,990.76
2018-02-06T01:22:26.629Z,990.76
2018-02-06T01:23:26.543Z,990.73
2018-02-06T01:24:26.456Z,990.74
2018-02-06T01:25:26.370Z,990.79
2018-02-06T01:26:26.281Z,990.80
2018-02-06T01:27:26.196Z,990.74
2018-02-06T01:28:26.109Z,990.72
2018-02-06T01:29:26.028Z,990.79
2018-02-06T01:30:25.936Z,990.75
2018-02-06T01:31:25.850Z,990.75
2018-02-06T01:32:25.762Z,990.72
2018-02-06T01:33:25.676Z,990.69
2018-02-06T01:34:25.644Z,990.56
2018-02-06T01:35:25.503Z,990.53
2018-02-06T01:36:25.417Z,990.47
2018-02-06T01:37:25.334Z,990.41
2018-02-06T01:38:25.243Z,990.38
2018-02-06T01:39:25.156Z,990.41
2018-02-06T01:40:25.071Z,990.31
2018-02-06T01:41:24.983Z,990.27
2018-02-06T01:42:24.896Z,990.33
2018-02-06T01:43:24.810Z,990.33
2018-02-06T01:44:24.724Z,990.28
2018-02-06T01:45:24.637Z,990.27
2018-02-06T01:46:24.550Z,990.25
2018-02-06T01:47:24.466Z,990.24
2018-02-06T01:48:24.427Z,990.16
2018-02-06T01:49:24.292Z,990.12
2018-02-06T01:50:24.203Z,990.06
2018-02-06T01:51:24.119Z,990.09
2018-02-06T01:52:24.031Z,990.13
2018-02-06T01:53:23.947Z,990.11
2018-02-06T01:54:23.856Z,990.12
2018-02-06T01:55:23.770Z,990.06
2018-02-06T01:56:23.685Z,990.07
2018-02-06T01:57:23.597Z,989.97
2018-02-06T01:58:23.510Z,989.98
2018-02-06T01:59:23.424Z,989.98
2018-02-06T02:00:23.337Z,989.96
2018-02-06T02:01:23.250Z,989.95
2018-02-06T02:02:23.164Z,989.97
2018-02-06T02:03:23.077Z,989.95
2018-02-06T02:04:22.991Z,989.96
2018-02-06T02:05:22.903Z,989.95
2018-02-06T02:06:22.817Z,989.95
2018-02-06T02:07:22.731Z,989.98
2018-02-06T02:08:22.643Z,989.98
2018-02-06T02:09:22.558Z,989.98
2018-02-06T02:10:22.470Z,989.92
2018-02-06T02:11:22.384Z,989.88
2018-02-06T02:12:22.297Z,989.83
2018-02-06T02:13:22.211Z,989.81
2018-02-06T02:14:22.123Z,989.77
2018-02-06T02:15:22.037Z,989.70
2018-02-06T02:16:21.951Z,989.62
2018-02-06T02:17:21.865Z,989.61
2018-02-06T02:18:21.778Z,989.56
2018-02-06T02:19:21.691Z,989.59
2018-02-06T02:20:21.608Z,989.64
2018-02-06T02:21:21.518Z,989.64
2018-02-06T02:22:21.431Z,989.66
2018-02-06T02:23:21.343Z,989.66
2018-02-06T02:24:21.258Z,989.67
2018-02-06T02:25:21.171Z,989.62
2018-02-06T02:26:21.084Z,989.62
2018-02-06T02:27:20.996Z,989.60
2018-02-06T02:28:20.911Z,989.57
2018-02-06T02:29:20.824Z,989.52
2018-02-06T02:30:20.737Z,989.50
2018-02-06T02:31:20.649Z,989.46
2018-02-06T02:32:20.563Z,989.44
2018-02-06T02:33:20.477Z,989.42
2018-02-06T02:34:20.391Z,989.41
2018-02-06T02:35:20.304Z,989.43
2018-02-06T02:36:20.217Z,989.43
2018-02-06T02:37:20.131Z,989.41
2018-02-06T02:38:20.045Z,989.36
2018-02-06T02:39:19.958Z,989.37
2018-02-06T02:40:19.873Z,989.33
2018-02-06T02:41:19.786Z,989.26
2018-02-06T04:39:09.609Z,988.51
2018-02-06T04:40:09.523Z,988.46
2018-02-06T04:41:09.437Z,988.37
2018-02-06T04:42:09.350Z,988.27
2018-02-06T04:43:09.265Z,988.25
2018-02-06T04:44:09.179Z,988.18
2018-02-06T04:45:09.093Z,988.28
2018-02-06T04:46:09.006Z,988.22
2018-02-06T04:47:08.921Z,988.23
2018-02-06T04:48:08.836Z,988.23
2018-02-06T04:49:08.753Z,988.20
2018-02-06T04:50:08.663Z,988.22
2018-02-06T04:51:08.577Z,988.21
2018-02-06T04:52:08.491Z,988.24
2018-02-06T04:53:08.406Z,988.20
2018-02-06T04:54:08.318Z,988.20
2018-02-06T04:55:08.233Z,988.17
2018-02-06T04:56:08.146Z,988.16
2018-02-06T04:57:08.061Z,988.07
2018-02-06T04:58:07.974Z,988.04
2018-02-06T04:59:07.887Z,988.10
2018-02-06T05:00:07.801Z,988.13
2018-02-06T05:01:07.717Z,988.17
2018-02-06T05:02:07.629Z,988.08
2018-02-06T05:03:07.543Z,988.09
2018-02-06T05:04:07.457Z,988.10
2018-02-06T05:05:07.371Z,988.04
2018-02-06T05:06:07.285Z,987.97
2018-02-06T05:07:07.198Z,987.92
2018-02-06T05:08:07.111Z,987.86
2018-02-06T05:09:07.026Z,987.81
2018-02-06T05:10:06.938Z,987.83
2018-02-06T05:11:06.853Z,987.77
2018-02-06T05:12:06.767Z,987.77
2018-02-06T05:13:06.681Z,987.73
2018-02-06T05:14:06.594Z,987.72
2018-02-06T05:15:06.508Z,987.74
2018-02-06T05:16:06.422Z,987.74
2018-02-06T05:17:06.336Z,987.70
2018-02-06T05:18:06.251Z,987.75
2018-02-06T05:19:06.163Z,987.72
2018-02-06T05:20:06.078Z,987.79
2018-02-06T05:21:05.992Z,987.74
2018-02-06T05:22:05.905Z,987.76
2018-02-06T05:23:05.819Z,987.71
2018-02-06T05:24:05.733Z,987.72
2018-02-06T05:25:05.648Z,987.76
2018-02-06T05:26:05.560Z,987.76
2018-02-06T05:27:05.475Z,987.78
2018-02-06T05:28:05.389Z,987.82
2018-02-06T05:29:05.306Z,987.83
2018-02-06T05:30:05.216Z,987.79
2018-02-06T05:31:05.131Z,987.77
2018-02-06T05:32:05.045Z,987.75
2018-02-06T05:33:04.959Z,987.78
2018-02-06T05:34:04.874Z,987.77
2018-02-06T05:35:04.786Z,987.72
2018-02-06T05:36:04.703Z,987.67
2018-02-06T05:37:04.616Z,987.66
2018-02-06T05:38:04.529Z,987.73
2018-02-06T05:39:04.444Z,987.68
2018-02-06T05:40:04.358Z,987.68
2018-02-06T05:41:04.272Z,987.68
2018-02-06T05:42:04.185Z,987.69
2018-02-06T05:43:04.098Z,987.68
2018-02-06T05:44:04.014Z,987.70
2018-02-06T05:45:03.928Z,987.69
2018-02-06T05:46:03.841Z,987.69
2018-02-06T05:47:03.755Z,987.65
2018-02-06T05:48:03.670Z,987.65
2018-02-06T05:49:03.584Z,987.69
2018-02-06T05:50:03.498Z,987.68
2018-02-06T05:51:03.411Z,987.68
2018-02-06T05:52:03.326Z,987.60
2018-02-06T05:53:03.240Z,987.59
2018-02-06T05:54:03.153Z,987.53
2018-02-06T05:55:03.071Z,987.53
2018-02-06T05:56:03.004Z,987.48
2018-02-06T05:57:02.895Z,987.53
2018-02-06T05:58:02.808Z,987.48
2018-02-06T05:59:02.723Z,987.44
2018-02-06T06:00:02.637Z,987.50
2018-02-06T06:01:02.551Z,987.49
2018-02-06T06:02:02.464Z,987.53
2018-02-06T06:03:02.378Z,987.54
2018-02-06T06:04:02.293Z,987.51
2018-02-06T06:05:02.207Z,987.49
2018-02-06T06:06:02.121Z,987.47
2018-02-06T06:07:02.035Z,987.44
2018-02-06T06:08:01.950Z,987.45
2018-02-06T06:09:01.864Z,987.44
2018-02-06T06:10:01.777Z,987.44
2018-02-06T06:11:01.692Z,987.47
2018-02-06T06:12:01.605Z,987.46
2018-02-06T06:13:01.520Z,987.43
2018-02-06T06:14:01.433Z,987.46
2018-02-06T06:15:01.347Z,987.46
2018-02-06T06:16:01.262Z,987.43
2018-02-06T06:17:01.176Z,987.42
2018-02-06T06:18:01.090Z,987.47
2018-02-06T06:19:01.004Z,987.43
2018-02-06T06:20:00.919Z,987.37
2018-02-06T06:21:00.836Z,987.37
2018-02-06T06:22:00.747Z,987.38
2018-02-06T06:23:00.671Z,987.35
2018-02-06T06:24:00.575Z,987.32
2018-02-06T06:25:00.490Z,987.30
2018-02-06T06:26:00.403Z,987.33
2018-02-06T06:27:00.316Z,987.27
2018-02-06T06:28:00.231Z,987.30
2018-02-06T06:29:00.146Z,987.26
2018-02-06T06:30:00.066Z,987.26
2018-02-06T06:30:59.978Z,987.28
2018-02-06T06:31:59.888Z,987.21
2018-02-06T06:32:59.803Z,987.24
2018-02-06T06:33:59.716Z,987.24
2018-02-06T06:34:59.631Z,987.25
2018-02-06T06:35:59.548Z,987.20
2018-02-06T06:36:59.460Z,987.22
2018-02-06T06:37:59.373Z,987.18
2018-02-06T06:38:59.289Z,987.17
2018-02-06T06:39:59.202Z,987.22
2018-02-06T06:40:59.117Z,987.22
2018-02-06T06:41:59.031Z,987.25
2018-02-06T06:42:58.946Z,987.25
2018-02-06T06:43:58.861Z,987.22
2018-02-06T06:44:58.775Z,987.22
2018-02-06T06:45:58.688Z,987.21
2018-02-06T06:46:58.603Z,987.20
2018-02-06T06:47:58.518Z,987.15
2018-02-06T06:48:58.432Z,987.19
2018-02-06T06:49:58.346Z,987.24
2018-02-06T06:50:58.261Z,987.24
2018-02-06T06:51:58.175Z,987.23
2018-02-06T06:52:58.090Z,987.21
2018-02-06T06:53:58.005Z,987.20
2018-02-06T06:54:57.919Z,987.17
2018-02-06T06:55:57.834Z,987.20
2018-02-06T06:56:57.747Z,987.16
2018-02-06T06:57:57.662Z,987.13
2018-02-06T06:58:57.576Z,987.10
2018-02-06T06:59:57.490Z,987.12
2018-02-06T07:00:57.405Z,987.09
2018-02-06T07:01:57.319Z,987.07
2018-02-06T07:02:57.232Z,987.09
2018-02-06T07:03:57.148Z,987.06
2018-02-06T07:04:57.063Z,987.08
2018-02-06T07:05:56.976Z,987.10
2018-02-06T07:06:56.890Z,987.07
2018-02-06T07:07:56.805Z,987.11
2018-02-06T07:08:56.720Z,987.12
2018-02-06T07:09:56.633Z,987.12
2018-02-06T07:10:56.548Z,987.14
2018-02-06T07:11:56.462Z,987.17
2018-02-06T07:12:56.378Z,987.11
2018-02-06T07:13:56.292Z,987.13
2018-02-06T07:14:56.206Z,987.10
2018-02-06T07:15:56.121Z,987.04
2018-02-06T07:16:56.036Z,987.04
2018-02-06T07:17:55.949Z,987.02
2018-02-06T07:18:55.863Z,987.02
2018-02-06T07:19:55.778Z,986.95
2018-02-06T07:20:55.693Z,986.95
2018-02-06T07:21:55.607Z,986.96
2018-02-06T07:22:55.523Z,986.97
2018-02-06T07:23:55.436Z,986.92
2018-02-06T07:24:55.351Z,986.94
2018-02-06T07:25:55.264Z,986.96
2018-02-06T07:26:55.179Z,986.92
2018-02-06T07:27:55.094Z,986.92
2018-02-06T07:28:55.031Z,986.89
2018-02-06T07:29:54.923Z,986.95
2018-02-06T07:30:54.840Z,986.92
2018-02-06T07:31:54.752Z,986.92
2018-02-06T07:32:54.666Z,986.96
2018-02-06T07:33:54.580Z,986.96
2018-02-06T07:34:54.494Z,986.93
2018-02-06T07:35:54.409Z,986.93
2018-02-06T07:36:54.324Z,986.89
2018-02-06T07:37:54.236Z,986.87
2018-02-06T07:38:54.152Z,986.87
2018-02-06T07:39:54.068Z,986.88
2018-02-06T07:40:53.981Z,986.86
2018-02-06T07:41:53.893Z,986.81
2018-02-06T07:42:53.810Z,986.84
2018-02-06T07:43:53.725Z,986.88
2018-02-06T07:44:53.639Z,986.84
2018-02-06T07:45:53.552Z,986.90
2018-02-06T07:46:53.469Z,986.90
2018-02-06T07:47:53.382Z,986.87
2018-02-06T07:48:53.297Z,986.88
2018-02-06T07:49:53.210Z,986.91
2018-02-06T07:50:53.125Z,986.89
2018-02-06T07:51:53.041Z,986.90
2018-02-06T07:52:52.955Z,986.84
2018-02-06T07:53:52.868Z,986.87
2018-02-06T07:54:52.782Z,986.87
2018-02-06T07:55:52.727Z,986.86
2018-02-06T07:56:52.613Z,986.86
2018-02-06T07:57:52.527Z,986.86
2018-02-06T07:58:52.441Z,986.84
2018-02-06T07:59:52.357Z,986.82
2018-02-06T08:00:52.271Z,986.77
2018-02-06T08:01:52.184Z,986.77
2018-02-06T08:02:52.099Z,986.77
2018-02-06T08:03:52.014Z,986.81
2018-02-06T08:04:51.929Z,986.84
2018-02-06T08:05:51.845Z,986.85
2018-02-06T08:06:51.758Z,986.83
2018-02-06T08:07:51.673Z,986.89
2018-02-06T08:08:51.588Z,986.87
2018-02-06T08:09:51.502Z,986.88
2018-02-06T08:10:51.416Z,986.87
2018-02-06T08:11:51.331Z,986.90
2018-02-06T08:12:51.245Z,986.90
2018-02-06T08:13:51.160Z,986.92
2018-02-06T08:14:51.076Z,986.92
2018-02-06T08:15:50.990Z,986.92
2018-02-06T08:16:50.905Z,986.89
2018-02-06T08:17:50.819Z,986.93
2018-02-06T08:18:50.736Z,986.94
2018-02-06T08:19:50.700Z,986.92
2018-02-06T08:20:50.565Z,986.93
2018-02-06T08:21:50.478Z,986.91
2018-02-06T08:22:50.393Z,986.91
2018-02-06T08:23:50.308Z,986.93
2018-02-06T08:24:50.223Z,986.91
2018-02-06T08:25:50.138Z,986.89
2018-02-06T08:26:50.052Z,986.83
2018-02-06T08:27:49.968Z,986.84
2018-02-06T08:28:49.884Z,986.85
2018-02-06T08:29:49.797Z,986.81
2018-02-06T08:30:49.712Z,986.83
2018-02-06T08:31:49.626Z,986.83
2018-02-06T08:32:49.542Z,986.81
2018-02-06T08:33:49.457Z,986.80
2018-02-06T08:34:49.371Z,986.77
2018-02-06T08:35:49.291Z,986.79
2018-02-06T08:36:49.201Z,986.78
2018-02-06T08:37:49.119Z,986.80
2018-02-06T08:38:49.030Z,986.84
2018-02-06T08:39:48.945Z,986.81
2018-02-06T08:40:48.861Z,986.87
2018-02-06T08:41:48.776Z,986.79
2018-02-06T08:42:48.690Z,986.77
2018-02-06T08:43:48.906Z,986.79
2018-02-06T08:44:48.543Z,986.76
2018-02-06T08:45:48.435Z,986.81
2018-02-06T08:46:48.354Z,986.79
2018-02-06T08:47:48.267Z,986.80
2018-02-06T08:48:48.181Z,986.80
2018-02-06T08:49:48.095Z,986.76
2018-02-06T08:50:48.011Z,986.77
2018-02-06T08:51:47.927Z,986.70
2018-02-06T08:52:47.841Z,986.69
2018-02-06T08:53:47.755Z,986.67
2018-02-06T08:54:47.670Z,986.66
2018-02-06T08:55:47.585Z,986.69
2018-02-06T08:56:47.501Z,986.67
2018-02-06T08:57:47.416Z,986.65
2018-02-06T08:58:47.330Z,986.66
2018-02-06T08:59:47.246Z,986.65
2018-02-06T09:00:47.162Z,986.63
2018-02-06T09:01:47.077Z,986.64
2018-02-06T09:02:46.989Z,986.61
2018-02-06T09:03:46.907Z,986.66
2018-02-06T09:04:46.821Z,986.61
2018-02-06T09:05:46.736Z,986.60
2018-02-06T09:06:46.651Z,986.60
2018-02-06T09:07:46.566Z,986.59
2018-02-06T09:08:46.483Z,986.56
2018-02-06T09:09:46.397Z,986.60
2018-02-06T09:10:46.313Z,986.56
2018-02-06T09:11:46.228Z,986.58
2018-02-06T09:12:46.144Z,986.59
2018-02-06T09:13:46.059Z,986.60
2018-02-06T09:14:45.975Z,986.62
2018-02-06T09:15:45.890Z,986.64
2018-02-06T09:16:45.807Z,986.63
2018-02-06T09:17:45.722Z,986.63
2018-02-06T09:18:45.637Z,986.60
2018-02-06T09:19:45.554Z,986.62
2018-02-06T09:20:45.469Z,986.63
2018-02-06T09:21:45.384Z,986.65
2018-02-06T09:22:45.301Z,986.68
2018-02-06T09:23:45.221Z,986.62
2018-02-06T09:24:45.134Z,986.62
2018-02-06T09:25:45.048Z,986.65
2018-02-06T09:26:44.964Z,986.63
2018-02-06T09:27:44.879Z,986.65
2018-02-06T09:28:44.796Z,986.69
2018-02-06T09:29:44.710Z,986.66
2018-02-06T09:30:44.627Z,986.65
2018-02-06T09:31:44.544Z,986.70
2018-02-06T09:32:44.460Z,986.70
2018-02-06T09:33:44.376Z,986.70
2018-02-06T09:34:44.291Z,986.67
2018-02-06T09:35:44.209Z,986.69
2018-02-06T09:36:44.124Z,986.70
2018-02-06T09:37:44.040Z,986.71
2018-02-06T09:38:43.956Z,986.69
2018-02-06T09:39:43.873Z,986.68
2018-02-06T09:40:43.791Z,986.69
2018-02-06T09:41:43.707Z,986.79
2018-02-06T09:42:43.622Z,986.75
2018-02-06T09:43:43.539Z,986.72
2018-02-06T09:44:43.455Z,986.73
2018-02-06T09:45:43.371Z,986.78
2018-02-06T09:46:43.289Z,986.73
2018-02-06T09:47:43.205Z,986.72
2018-02-06T09:48:43.165Z,986.73
2018-02-06T09:49:43.037Z,986.68
2018-02-06T09:50:42.954Z,986.73
2018-02-06T09:51:42.870Z,986.75
2018-02-06T09:52:42.787Z,986.78
2018-02-06T09:53:42.702Z,986.74
2018-02-06T09:54:42.619Z,986.78
2018-02-06T09:55:42.536Z,986.79
2018-02-06T09:56:42.453Z,986.81
2018-02-06T09:57:42.366Z,986.75
2018-02-06T09:58:42.283Z,986.76
2018-02-06T09:59:42.201Z,986.78
2018-02-06T10:00:42.116Z,986.72
2018-02-06T10:01:42.032Z,986.71
2018-02-06T10:02:41.949Z,986.70
2018-02-06T10:03:41.865Z,986.69
2018-02-06T10:04:41.782Z,986.66
2018-02-06T10:05:41.698Z,986.66
2018-02-06T10:06:41.616Z,986.69
2018-02-06T10:07:41.532Z,986.68
2018-02-06T10:08:41.448Z,986.64
2018-02-06T10:09:41.364Z,986.68
2018-02-06T10:10:41.282Z,986.63
2018-02-06T10:11:41.199Z,986.67
2018-02-06T10:12:41.118Z,986.69
2018-02-06T10:13:41.032Z,986.63
2018-02-06T10:14:40.949Z,986.62
2018-02-06T10:15:40.867Z,986.59
2018-02-06T10:16:40.783Z,986.56
2018-02-06T10:17:40.742Z,986.60
2018-02-06T10:18:40.615Z,986.56
2018-02-06T10:19:40.532Z,986.56
2018-02-06T10:20:40.449Z,986.57
2018-02-06T10:21:40.365Z,986.55
2018-02-06T10:22:40.282Z,986.55
2018-02-06T10:23:40.200Z,986.55
2018-02-06T10:24:40.118Z,986.51
2018-02-06T10:25:40.034Z,986.49
2018-02-06T10:26:39.952Z,986.51
2018-02-06T10:27:39.870Z,986.48
2018-02-06T10:28:39.788Z,986.54
2018-02-06T10:29:39.705Z,986.50
2018-02-06T10:30:39.623Z,986.49
2018-02-06T10:31:39.541Z,986.52
2018-02-06T10:32:39.459Z,986.53
2018-02-06T10:33:39.377Z,986.50
2018-02-06T10:34:39.295Z,986.45
2018-02-06T10:35:39.213Z,986.46
2018-02-06T10:36:39.130Z,986.44
2018-02-06T10:37:39.051Z,986.41
2018-02-06T10:38:38.966Z,986.44
2018-02-06T10:39:38.885Z,986.46
2018-02-06T10:40:38.803Z,986.40
2018-02-06T10:41:38.720Z,986.41
2018-02-06T10:42:38.644Z,986.36
2018-02-06T10:43:38.558Z,986.34
2018-02-06T10:44:38.475Z,986.35
2018-02-06T10:45:38.393Z,986.35
2018-02-06T10:46:38.312Z,986.33
2018-02-06T10:47:38.229Z,986.34
2018-02-06T10:48:38.149Z,986.31
2018-02-06T10:49:38.066Z,986.31
2018-02-06T10:50:37.985Z,986.34
2018-02-06T10:51:37.902Z,986.30
2018-02-06T10:52:37.826Z,986.26
2018-02-06T10:53:37.738Z,986.19
2018-02-06T10:54:37.656Z,986.19
2018-02-06T10:55:37.574Z,986.18
2018-02-06T10:56:37.492Z,986.17
2018-02-06T10:57:37.416Z,986.17
2018-02-06T10:58:37.329Z,986.18
2018-02-06T10:59:37.245Z,986.19
2018-02-06T11:00:37.164Z,986.18
2018-02-06T11:01:37.083Z,986.16
2018-02-06T11:02:37.000Z,986.15
2018-02-06T11:03:36.919Z,986.13
2018-02-06T11:04:36.839Z,986.14
2018-02-06T11:05:36.755Z,986.14
2018-02-06T11:06:36.673Z,986.12
2018-02-06T11:07:36.594Z,986.11
2018-02-06T11:08:36.511Z,986.05
2018-02-06T11:09:36.429Z,986.12
2018-02-06T11:10:36.354Z,986.04
2018-02-06T11:11:36.267Z,986.07
2018-02-06T11:12:36.229Z,986.07
2018-02-06T11:13:36.104Z,986.03
2018-02-06T11:14:36.023Z,986.02
2018-02-06T11:15:35.941Z,985.97
2018-02-06T11:16:35.860Z,986.00
2018-02-06T11:17:35.778Z,985.95
2018-02-06T11:18:35.697Z,985.96
2018-02-06T11:19:35.616Z,985.98
2018-02-06T11:20:35.536Z,985.96
2018-02-06T11:21:35.454Z,985.91
2018-02-06T11:22:35.373Z,985.87
2018-02-06T11:23:35.291Z,985.92
2018-02-06T11:24:35.211Z,985.86
2018-02-06T11:25:35.129Z,985.82
2018-02-06T11:26:35.048Z,985.82
2018-02-06T11:27:34.966Z,985.83
2018-02-06T11:28:34.885Z,985.81
2018-02-06T11:29:34.803Z,985.80
2018-02-06T11:30:34.722Z,985.83
2018-02-06T11:31:34.642Z,985.78
2018-02-06T11:32:34.561Z,985.82
2018-02-06T11:33:34.479Z,985.80
2018-02-06T11:34:34.398Z,985.80
2018-02-06T11:35:34.317Z,985.78
2018-02-06T11:36:34.236Z,985.76
2018-02-06T11:37:34.157Z,985.81
2018-02-06T11:38:34.074Z,985.85
2018-02-06T11:39:33.993Z,985.84
2018-02-06T11:40:33.913Z,985.84
2018-02-06T11:41:33.832Z,985.82
2018-02-06T11:42:33.752Z,985.80
2018-02-06T11:43:33.674Z,985.80
2018-02-06T11:44:33.594Z,985.76
2018-02-06T11:45:33.515Z,985.64
2018-02-06T11:46:33.439Z,985.76
2018-02-06T11:47:33.358Z,985.77
2018-02-06T11:48:33.280Z,985.84
2018-02-06T11:49:33.201Z,985.90
2018-02-06T11:50:33.127Z,985.89
2018-02-06T11:51:33.046Z,985.96
2018-02-06T11:52:32.970Z,985.93
2018-02-06T11:53:32.891Z,985.93
2018-02-06T11:54:32.815Z,985.72
2018-02-06T11:55:32.739Z,985.67
2018-02-06T11:56:32.662Z,985.58
2018-02-06T11:57:32.584Z,985.57
2018-02-06T11:58:32.508Z,985.47
2018-02-06T11:59:32.431Z,985.48
2018-02-06T12:00:32.355Z,985.39
2018-02-06T12:01:32.276Z,985.49
2018-02-06T12:02:32.198Z,985.47
2018-02-06T12:03:32.121Z,985.46
2018-02-06T12:04:32.043Z,985.47
2018-02-06T12:05:31.964Z,985.82
2018-02-06T12:06:31.886Z,985.50
2018-02-06T12:07:31.808Z,985.62
2018-02-06T12:08:31.730Z,985.82
2018-02-06T12:09:31.652Z,985.49
2018-02-06T12:10:31.574Z,985.38
2018-02-06T12:11:31.496Z,985.42
2018-02-06T12:12:31.419Z,985.35
2018-02-06T12:13:31.339Z,985.29
2018-02-06T12:14:31.262Z,985.22
2018-02-06T12:15:31.183Z,985.20
2018-02-06T12:16:31.103Z,985.22
2018-02-06T12:17:31.025Z,985.20
2018-02-06T12:18:30.947Z,985.21
2018-02-06T12:19:30.869Z,985.17
2018-02-06T12:20:30.790Z,985.15
2018-02-06T12:21:30.709Z,985.14
2018-02-06T12:22:30.630Z,985.05
2018-02-06T12:23:30.549Z,985.04
2018-02-06T12:24:30.475Z,985.00
2018-02-06T12:25:30.388Z,984.99
2018-02-06T12:26:30.308Z,985.03
2018-02-06T12:27:30.228Z,985.00
2018-02-06T12:28:30.148Z,985.02
2018-02-06T12:29:30.066Z,985.00
2018-02-06T12:30:29.990Z,985.01
2018-02-06T12:31:29.905Z,984.98
2018-02-06T12:32:29.825Z,985.01
2018-02-06T12:33:29.743Z,985.02
2018-02-06T12:34:29.661Z,985.01
2018-02-06T12:35:29.581Z,984.93
2018-02-06T12:36:29.500Z,985.01
2018-02-06T12:37:29.419Z,985.00
2018-02-06T12:38:29.336Z,984.98
2018-02-06T12:39:29.257Z,984.98
2018-02-06T12:40:29.174Z,984.91
2018-02-06T12:41:29.091Z,984.86
2018-02-06T12:42:29.010Z,984.89
2018-02-06T12:43:28.929Z,984.85
2018-02-06T12:44:28.848Z,984.83
2018-02-06T12:45:28.766Z,984.75
2018-02-06T12:46:28.685Z,984.77
2018-02-06T12:47:28.601Z,984.78
2018-02-06T12:48:28.519Z,984.72
2018-02-06T12:49:28.436Z,984.71
2018-02-06T12:50:28.354Z,984.66
2018-02-06T12:51:28.274Z,984.67
2018-02-06T12:52:28.191Z,984.66
2018-02-06T12:53:28.108Z,984.65
2018-02-06T12:54:28.026Z,984.62
2018-02-06T12:55:27.945Z,984.69
2018-02-06T12:56:27.862Z,984.69
2018-02-06T12:57:27.779Z,984.64
2018-02-06T12:58:27.697Z,984.66
2018-02-06T12:59:27.617Z,984.64
2018-02-06T13:00:27.532Z,984.59
2018-02-06T13:01:27.448Z,984.59
2018-02-06T13:02:27.366Z,984.51
2018-02-06T13:03:27.286Z,984.56
2018-02-06T13:04:27.201Z,984.50
2018-02-06T13:05:27.119Z,984.53
2018-02-06T13:06:27.036Z,984.51
2018-02-06T13:07:26.955Z,984.51
2018-02-06T13:08:26.871Z,984.45
2018-02-06T13:09:26.789Z,984.50
2018-02-06T13:10:26.705Z,984.47
2018-02-06T13:11:26.624Z,984.53
2018-02-06T13:12:26.542Z,984.44
2018-02-06T13:13:26.456Z,984.44
2018-02-06T13:14:26.406Z,984.45
2018-02-06T13:15:26.292Z,984.45
2018-02-06T13:16:26.209Z,984.43
2018-02-06T13:17:26.128Z,984.46
2018-02-06T13:18:26.042Z,984.46
2018-02-06T13:19:25.959Z,984.42
2018-02-06T13:20:25.877Z,984.46
2018-02-06T13:21:25.792Z,984.43
2018-02-06T13:22:25.710Z,984.44
2018-02-06T13:23:25.629Z,984.42
2018-02-06T13:24:25.543Z,984.39
2018-02-06T13:25:25.459Z,984.40
2018-02-06T13:26:25.376Z,984.40
2018-02-06T13:27:25.295Z,984.41
2018-02-06T13:28:25.212Z,984.43
2018-02-06T13:29:25.126Z,984.40
2018-02-06T13:30:25.045Z,984.43
2018-02-06T13:31:24.961Z,984.36
2018-02-06T13:32:24.878Z,984.41
2018-02-06T13:33:24.795Z,984.36
2018-02-06T13:34:24.711Z,984.39
2018-02-06T13:35:24.629Z,984.41
2018-02-06T13:36:24.545Z,984.42
2018-02-06T13:37:24.462Z,984.43
2018-02-06T13:38:24.379Z,984.40
2018-02-06T13:39:24.296Z,984.37
2018-02-06T13:40:24.216Z,984.34
2018-02-06T13:41:24.129Z,984.32
2018-02-06T13:42:24.046Z,984.34
2018-02-06T13:43:23.963Z,984.29
2018-02-06T13:44:23.880Z,984.30
2018-02-06T13:45:23.796Z,984.27
2018-02-06T13:46:23.714Z,984.30
2018-02-06T13:47:23.633Z,984.29
2018-02-06T13:48:23.548Z,984.27
2018-02-06T13:49:23.464Z,984.24
2018-02-06T13:50:23.380Z,984.25
2018-02-06T13:51:23.297Z,984.24
2018-02-06T13:52:23.215Z,984.23
2018-02-06T13:53:23.132Z,984.24
2018-02-06T13:54:23.050Z,984.22
2018-02-06T13:55:22.965Z,984.27
2018-02-06T13:56:22.883Z,984.30
2018-02-06T13:57:22.798Z,984.28
2018-02-06T13:58:22.718Z,984.27
2018-02-06T13:59:22.632Z,984.25
2018-02-06T14:00:22.550Z,984.25
2018-02-06T14:01:22.466Z,984.25
2018-02-06T14:02:22.384Z,984.24
2018-02-06T14:03:22.302Z,984.23
2018-02-06T14:04:22.219Z,984.21
2018-02-06T14:05:22.136Z,984.20
2018-02-06T14:06:22.053Z,984.21
2018-02-06T14:07:21.971Z,984.19
2018-02-06T14:08:21.888Z,984.17
2018-02-06T14:09:21.803Z,984.11
2018-02-06T14:10:21.721Z,984.13
2018-02-06T14:11:21.638Z,984.11
2018-02-06T14:12:21.556Z,984.11
2018-02-06T14:13:21.472Z,984.12
2018-02-06T14:14:21.389Z,984.11
2018-02-06T14:15:21.306Z,984.15
2018-02-06T14:16:21.224Z,984.13
2018-02-06T14:17:21.141Z,984.12
2018-02-06T14:18:21.058Z,984.11
2018-02-06T14:19:20.974Z,984.16
2018-02-06T14:20:20.891Z,984.12
2018-02-06T14:21:20.807Z,984.10
2018-02-06T14:22:20.724Z,984.11
2018-02-06T14:23:20.642Z,984.09
2018-02-06T14:24:20.558Z,984.07